createdAt,value
2018-04-19T00:00:36.428Z,0
2018-04-19T00:01:38.868Z,0
2018-04-19T00:02:36.653Z,0
2018-04-19T00:03:36.408Z,0
2018-04-19T00:04:36.406Z,0
2018-04-19T00:05:36.679Z,0
2018-04-19T00:06:36.655Z,0
2018-04-19T00:07:36.647Z,0
2018-04-19T00:08:36.659Z,0
2018-04-19T00:09:36.432Z,0
2018-04-19T00:10:36.667Z,0
2018-04-19T00:11:36.661Z,0
2018-04-19T00:12:36.658Z,0
2018-04-19T00:13:36.461Z,0
2018-04-19T00:14:36.153Z,0
2018-04-19T00:15:36.411Z,0
2018-04-19T00:16:36.699Z,0
2018-04-19T00:17:36.398Z,0
2018-04-19T00:18:36.406Z,0
2018-04-19T00:19:36.399Z,0
2018-04-19T00:20:36.400Z,0
2018-04-19T00:21:36.400Z,0
2018-04-19T00:22:36.651Z,0
2018-04-19T00:23:36.642Z,0
2018-04-19T00:24:36.635Z,0
2018-04-19T00:25:36.630Z,0
2018-04-19T00:26:36.641Z,0
2018-04-19T00:27:36.402Z,0
2018-04-19T00:28:36.636Z,0
2018-04-19T00:29:36.639Z,0
2018-04-19T00:30:36.677Z,0
2018-04-19T00:31:41.239Z,0
2018-04-19T00:32:36.644Z,0
2018-04-19T00:33:36.462Z,0
2018-04-19T00:34:36.442Z,0
2018-04-19T00:35:36.410Z,0
2018-04-19T00:36:36.645Z,0
2018-04-19T00:37:36.628Z,0
2018-04-19T00:38:36.635Z,0
2018-04-19T00:39:36.372Z,0
2018-04-19T00:40:36.625Z,0
2018-04-19T00:41:36.360Z,0
2018-04-19T00:42:36.350Z,0
2018-04-19T00:43:36.613Z,0
2018-04-19T00:44:36.620Z,0
2018-04-19T00:45:36.363Z,0
2018-04-19T00:46:36.388Z,0
2018-04-19T00:47:36.951Z,0
2018-04-19T00:48:36.615Z,0
2018-04-19T00:49:36.624Z,0
2018-04-19T00:50:36.598Z,0
2018-04-19T00:51:36.356Z,0
2018-04-19T00:52:36.351Z,0
2018-04-19T00:53:36.619Z,0
2018-04-19T00:54:36.110Z,0
2018-04-19T00:55:36.102Z,0
2018-04-19T00:56:36.353Z,0
2018-04-19T00:57:36.595Z,0
2018-04-19T00:58:36.103Z,0
2018-04-19T00:59:36.360Z,0
2018-04-19T01:00:36.598Z,0
2018-04-19T01:01:36.360Z,0
2018-04-19T01:02:38.186Z,0
2018-04-19T01:03:36.573Z,0
2018-04-19T01:04:36.369Z,0
2018-04-19T01:05:36.576Z,0
2018-04-19T01:06:36.364Z,0
2018-04-19T01:07:36.640Z,0
2018-04-19T01:08:36.325Z,0
2018-04-19T01:09:36.069Z,0
2018-04-19T01:10:36.315Z,0
2018-04-19T01:11:36.558Z,0
2018-04-19T01:12:36.302Z,0
2018-04-19T01:13:36.297Z,0
2018-04-19T01:14:36.312Z,0
2018-04-19T01:15:36.310Z,0
2018-04-19T01:16:36.315Z,0
2018-04-19T01:17:40.585Z,0
2018-04-19T01:18:36.295Z,0
2018-04-19T01:19:36.555Z,0
2018-04-19T01:20:36.559Z,0
2018-04-19T01:21:36.544Z,0
2018-04-19T01:22:36.573Z,0
2018-04-19T01:23:36.561Z,0
2018-04-19T01:24:36.547Z,0
2018-04-19T01:25:36.565Z,0
2018-04-19T01:26:36.301Z,0
2018-04-19T01:27:36.323Z,0
2018-04-19T01:28:36.273Z,0
2018-04-19T01:29:36.270Z,0
2018-04-19T01:30:36.529Z,0
2018-04-19T01:31:36.529Z,0
2018-04-19T01:32:36.023Z,0
2018-04-19T01:33:37.025Z,0
2018-04-19T01:34:36.281Z,0
2018-04-19T01:35:36.518Z,0
2018-04-19T01:36:36.262Z,0
2018-04-19T01:37:36.516Z,0
2018-04-19T01:38:36.269Z,0
2018-04-19T01:39:36.264Z,0
2018-04-19T01:40:36.011Z,0
2018-04-19T01:41:36.512Z,0
2018-04-19T01:42:36.249Z,0
2018-04-19T01:43:36.496Z,0
2018-04-19T01:44:36.250Z,0
2018-04-19T01:45:36.249Z,0
2018-04-19T01:46:36.242Z,0
2018-04-19T01:47:36.255Z,0
2018-04-19T01:48:38.354Z,0
2018-04-19T01:49:36.500Z,0
2018-04-19T01:50:35.998Z,0
2018-04-19T01:51:36.250Z,0
2018-04-19T01:52:36.231Z,0
2018-04-19T01:53:36.225Z,0
2018-04-19T01:54:36.226Z,0
2018-04-19T01:55:36.230Z,0
2018-04-19T01:56:36.485Z,0
2018-04-19T01:57:36.475Z,0
2018-04-19T01:58:36.465Z,0
2018-04-19T01:59:36.217Z,0
2018-04-19T02:00:36.477Z,0
2018-04-19T02:01:35.969Z,0
2018-04-19T02:02:36.471Z,0
2018-04-19T02:03:37.209Z,0
2018-04-19T02:04:36.207Z,0
2018-04-19T02:05:35.957Z,0
2018-04-19T02:06:36.223Z,0
2018-04-19T02:07:36.208Z,0
2018-04-19T02:08:36.453Z,0
2018-04-19T02:09:36.198Z,0
2018-04-19T02:10:35.946Z,0
2018-04-19T02:11:36.452Z,0
2018-04-19T02:12:36.448Z,0
2018-04-19T02:13:36.185Z,0
2018-04-19T02:14:36.449Z,0
2018-04-19T02:15:36.197Z,0
2018-04-19T02:16:36.430Z,0
2018-04-19T02:17:36.426Z,0
2018-04-19T02:18:36.424Z,0
2018-04-19T02:19:36.178Z,0
2018-04-19T02:20:36.424Z,0
2018-04-19T02:21:36.419Z,0
2018-04-19T02:22:36.178Z,0
2018-04-19T02:23:36.181Z,0
2018-04-19T02:24:35.914Z,0
2018-04-19T02:25:35.917Z,0
2018-04-19T02:26:36.409Z,0
2018-04-19T02:27:35.921Z,0
2018-04-19T02:28:36.419Z,0
2018-04-19T02:29:36.164Z,0
2018-04-19T02:30:36.160Z,0
2018-04-19T02:31:35.936Z,0
2018-04-19T02:32:36.415Z,0
2018-04-19T02:33:36.367Z,0
2018-04-19T02:34:36.162Z,0
2018-04-19T02:35:36.405Z,0
2018-04-19T02:36:36.148Z,0
2018-04-19T02:37:36.396Z,0
2018-04-19T02:38:36.380Z,0
2018-04-19T02:39:36.148Z,0
2018-04-19T02:40:35.878Z,0
2018-04-19T02:41:36.137Z,0
2018-04-19T02:42:36.133Z,0
2018-04-19T02:43:35.877Z,0
2018-04-19T02:44:36.375Z,0
2018-04-19T02:45:36.150Z,0
2018-04-19T02:46:36.139Z,0
2018-04-19T02:47:36.371Z,0
2018-04-19T02:48:37.727Z,0
2018-04-19T02:49:36.112Z,0
2018-04-19T02:50:36.650Z,0
2018-04-19T02:51:36.104Z,0
2018-04-19T02:52:36.110Z,0
2018-04-19T02:53:36.350Z,0
2018-04-19T02:54:36.426Z,0
2018-04-19T02:55:36.101Z,0
2018-04-19T02:56:35.856Z,0
2018-04-19T02:57:36.103Z,0
2018-04-19T02:58:35.836Z,0
2018-04-19T02:59:36.341Z,0
2018-04-19T03:00:36.104Z,0
2018-04-19T03:01:36.087Z,0
2018-04-19T03:02:36.093Z,0
2018-04-19T03:03:35.836Z,0
2018-04-19T03:04:37.990Z,0
2018-04-19T03:05:36.319Z,0
2018-04-19T03:06:36.325Z,0
2018-04-19T03:07:36.316Z,0
2018-04-19T03:08:36.088Z,0
2018-04-19T03:09:35.824Z,0
2018-04-19T03:10:36.064Z,0
2018-04-19T03:11:36.054Z,0
2018-04-19T03:12:36.221Z,0
2018-04-19T03:13:36.053Z,0
2018-04-19T03:14:36.312Z,0
2018-04-19T03:15:36.291Z,0
2018-04-19T03:16:36.043Z,0
2018-04-19T03:17:36.297Z,0
2018-04-19T03:18:36.047Z,0
2018-04-19T03:19:36.290Z,0
2018-04-19T03:20:36.325Z,0
2018-04-19T03:21:36.059Z,0
2018-04-19T03:22:36.277Z,0
2018-04-19T03:23:36.026Z,0
2018-04-19T03:24:36.022Z,0
2018-04-19T03:25:36.022Z,0
2018-04-19T03:26:35.761Z,0
2018-04-19T03:27:36.273Z,0
2018-04-19T03:28:36.009Z,0
2018-04-19T03:29:36.014Z,0
2018-04-19T03:37:39.568Z,0
2018-04-19T03:38:30.181Z,0
2018-04-19T03:39:29.881Z,0
2018-04-19T03:40:30.106Z,0
2018-04-19T03:41:29.594Z,0
2018-04-19T03:42:29.857Z,0
2018-04-19T03:43:30.096Z,0
2018-04-19T03:44:30.079Z,0
2018-04-19T03:45:29.863Z,0
2018-04-19T03:46:29.840Z,0
2018-04-19T03:47:30.076Z,4
2018-04-19T03:48:30.083Z,4
2018-04-19T03:49:29.832Z,4
2018-04-19T03:50:30.067Z,0
2018-04-19T03:51:29.572Z,0
2018-04-19T03:52:30.071Z,4
2018-04-19T03:53:30.061Z,4
2018-04-19T03:54:29.826Z,4
2018-04-19T03:55:30.084Z,4
2018-04-19T03:56:29.838Z,4
2018-04-19T03:57:30.047Z,8
2018-04-19T03:58:30.046Z,8
2018-04-19T03:59:29.564Z,8
2018-04-19T04:00:29.806Z,12
2018-04-19T04:01:29.799Z,8
2018-04-19T04:02:30.043Z,12
2018-04-19T04:03:29.533Z,12
2018-04-19T04:04:30.032Z,16
2018-04-19T04:05:29.804Z,20
2018-04-19T04:06:29.810Z,24
2018-04-19T04:07:29.808Z,24
2018-04-19T04:08:31.418Z,32
2018-04-19T04:09:29.781Z,40
2018-04-19T04:10:30.009Z,44
2018-04-19T04:11:29.787Z,52
2018-04-19T04:12:30.006Z,56
2018-04-19T04:13:29.503Z,64
2018-04-19T04:14:30.053Z,76
2018-04-19T04:15:29.789Z,84
2018-04-19T04:16:30.234Z,100
2018-04-19T04:17:29.757Z,112
2018-04-19T04:18:29.993Z,124
2018-04-19T04:19:29.762Z,140
2018-04-19T04:20:29.765Z,156
2018-04-19T04:21:29.488Z,172
2018-04-19T04:22:29.483Z,192
2018-04-19T04:23:29.484Z,216
2018-04-19T04:24:29.763Z,236
2018-04-19T04:25:30.089Z,256
2018-04-19T04:26:29.741Z,280
2018-04-19T04:27:29.470Z,304
2018-04-19T04:28:29.727Z,332
2018-04-19T04:29:30.018Z,360
2018-04-19T04:30:29.731Z,388
2018-04-19T04:31:30.087Z,420
2018-04-19T04:32:29.737Z,456
2018-04-19T04:33:29.738Z,492
2018-04-19T04:34:29.700Z,532
2018-04-19T04:35:29.720Z,572
2018-04-19T04:36:29.695Z,612
2018-04-19T04:37:29.957Z,652
2018-04-19T04:38:31.600Z,700
2018-04-19T04:39:29.700Z,740
2018-04-19T04:40:29.786Z,784
2018-04-19T04:41:29.726Z,832
2018-04-19T04:42:29.944Z,880
2018-04-19T04:43:29.684Z,924
2018-04-19T04:44:29.949Z,972
2018-04-19T04:45:29.932Z,1020
2018-04-19T04:46:29.431Z,1068
2018-04-19T04:47:29.930Z,1116
2018-04-19T04:48:29.690Z,1164
2018-04-19T04:49:29.910Z,1216
2018-04-19T04:50:29.929Z,1268
2018-04-19T04:51:29.672Z,1324
2018-04-19T04:52:29.900Z,1376
2018-04-19T04:53:29.911Z,1436
2018-04-19T04:54:29.941Z,1564
2018-04-19T04:55:29.911Z,1752
2018-04-19T04:56:29.914Z,1924
2018-04-19T04:57:29.894Z,2372
2018-04-19T04:58:29.903Z,2212
2018-04-19T04:59:29.932Z,2296
2018-04-19T05:00:29.927Z,2336
2018-04-19T05:01:29.646Z,2384
2018-04-19T05:02:29.893Z,2456
2018-04-19T05:03:29.896Z,2576
2018-04-19T05:04:29.899Z,2756
2018-04-19T05:05:29.939Z,2944
2018-04-19T05:06:29.633Z,3172
2018-04-19T05:07:29.635Z,3460
2018-04-19T05:08:30.118Z,3688
2018-04-19T05:09:29.889Z,3908
2018-04-19T05:10:29.421Z,4072
2018-04-19T05:11:29.632Z,4108
2018-04-19T05:12:29.900Z,4152
2018-04-19T05:13:29.883Z,4200
2018-04-19T05:14:30.035Z,4272
2018-04-19T05:15:29.901Z,4476
2018-04-19T05:16:29.640Z,4652
2018-04-19T05:17:29.619Z,4848
2018-04-19T05:18:29.891Z,4820
2018-04-19T05:19:29.932Z,4600
2018-04-19T05:20:29.918Z,4248
2018-04-19T05:21:29.374Z,3832
2018-04-19T05:22:29.619Z,3544
2018-04-19T05:23:29.632Z,3444
2018-04-19T05:24:29.629Z,3404
2018-04-19T05:25:29.895Z,3416
2018-04-19T05:26:29.381Z,3484
2018-04-19T05:27:29.887Z,3540
2018-04-19T05:28:29.893Z,3592
2018-04-19T05:29:29.651Z,3644
2018-04-19T05:30:29.890Z,3692
2018-04-19T05:31:29.626Z,3740
2018-04-19T05:32:29.382Z,3772
2018-04-19T05:33:29.907Z,3780
2018-04-19T05:34:29.636Z,3804
2018-04-19T05:35:29.397Z,3848
2018-04-19T05:36:29.376Z,5468
2018-04-19T05:37:29.124Z,5820
2018-04-19T05:38:29.645Z,5912
2018-04-19T05:39:34.847Z,6212
2018-04-19T05:40:29.439Z,6364
2018-04-19T05:41:29.907Z,6400
2018-04-19T05:42:29.651Z,6416
2018-04-19T05:43:29.653Z,6568
2018-04-19T05:44:29.963Z,6804
2018-04-19T05:45:29.977Z,7036
2018-04-19T05:46:29.932Z,7108
2018-04-19T05:47:29.903Z,7088
2018-04-19T05:48:29.652Z,7064
2018-04-19T05:49:29.673Z,7088
2018-04-19T05:50:29.914Z,7132
2018-04-19T05:51:29.664Z,7116
2018-04-19T05:52:29.932Z,7084
2018-04-19T05:53:29.920Z,7004
2018-04-19T05:54:30.207Z,6880
2018-04-19T05:55:29.917Z,6736
2018-04-19T05:56:29.684Z,7768
2018-04-19T05:57:29.168Z,4492
2018-04-19T05:58:29.945Z,6176
2018-04-19T05:59:29.432Z,5796
2018-04-19T06:00:29.938Z,5464
2018-04-19T06:01:29.943Z,5216
2018-04-19T06:02:29.686Z,5064
2018-04-19T06:03:29.934Z,4964
2018-04-19T06:04:29.444Z,4896
2018-04-19T06:05:29.482Z,4852
2018-04-19T06:06:29.444Z,4828
2018-04-19T06:07:29.967Z,4840
2018-04-19T06:08:29.998Z,4868
2018-04-19T06:09:29.725Z,4904
2018-04-19T06:10:30.414Z,4972
2018-04-19T06:11:29.752Z,5064
2018-04-19T06:12:29.737Z,5184
2018-04-19T06:13:29.984Z,5340
2018-04-19T06:23:12.526Z,9248
2018-04-19T06:24:12.771Z,9424
2018-04-19T06:25:14.788Z,9688
2018-04-19T06:26:12.772Z,9936
2018-04-19T06:27:12.540Z,10132
2018-04-19T06:28:16.522Z,10352
2018-04-19T06:29:12.771Z,10476
2018-04-19T06:30:14.127Z,10612
2018-04-19T06:31:12.777Z,10788
2018-04-19T06:32:12.806Z,10860
2018-04-19T06:33:12.787Z,10960
2018-04-19T06:34:13.027Z,10808
2018-04-19T06:35:14.305Z,10836
2018-04-19T06:36:13.320Z,10888
2018-04-19T06:37:13.052Z,10972
2018-04-19T06:38:12.806Z,11112
2018-04-19T06:39:12.825Z,11228
2018-04-19T06:40:15.038Z,11340
2018-04-19T06:41:12.336Z,11476
2018-04-19T06:42:12.330Z,11592
2018-04-19T06:43:13.083Z,11664
2018-04-19T06:44:13.131Z,11768
2018-04-19T06:45:15.545Z,11860
2018-04-19T06:46:13.091Z,11932
2018-04-19T06:47:12.856Z,11980
2018-04-19T06:48:13.101Z,12024
2018-04-19T06:49:12.877Z,12096
2018-04-19T06:50:14.419Z,12140
2018-04-19T06:51:13.366Z,12196
2018-04-19T06:52:12.891Z,12264
2018-04-19T06:53:13.154Z,12324
2018-04-19T06:54:12.902Z,12364
2018-04-19T06:55:14.146Z,12412
2018-04-19T06:56:13.160Z,12524
2018-04-19T06:57:12.984Z,12564
2018-04-19T06:58:14.427Z,12576
2018-04-19T06:59:13.182Z,12604
2018-04-19T07:00:14.673Z,12620
2018-04-19T07:01:13.054Z,12624
2018-04-19T07:02:12.967Z,12584
2018-04-19T07:03:13.207Z,12700
2018-04-19T07:04:13.231Z,12780
2018-04-19T07:05:14.103Z,12804
2018-04-19T07:06:12.992Z,12884
2018-04-19T07:07:13.242Z,12852
2018-04-19T07:08:13.249Z,12928
2018-04-19T07:09:13.260Z,13176
2018-04-19T07:10:14.703Z,13116
2018-04-19T07:11:12.776Z,13016
2018-04-19T07:12:13.300Z,12992
2018-04-19T07:13:13.536Z,12972
2018-04-19T07:14:13.295Z,13064
2018-04-19T07:15:14.028Z,12984
2018-04-19T07:16:13.060Z,12972
2018-04-19T07:17:13.327Z,12900
2018-04-19T07:18:13.078Z,12876
2018-04-19T07:19:13.099Z,12876
2018-04-19T07:20:14.619Z,13084
2018-04-19T07:21:13.115Z,12948
2018-04-19T07:22:12.862Z,12772
2018-04-19T07:23:13.117Z,12232
2018-04-19T07:24:12.875Z,11132
2018-04-19T07:25:14.408Z,9932
2018-04-19T07:26:13.425Z,9248
2018-04-19T07:27:13.185Z,8712
2018-04-19T07:28:14.485Z,8232
2018-04-19T07:29:13.434Z,8024
2018-04-19T07:30:14.269Z,7904
2018-04-19T07:31:13.450Z,7792
2018-04-19T07:32:13.294Z,7720
2018-04-19T07:33:13.211Z,7716
2018-04-19T07:34:13.200Z,8028
2018-04-19T07:35:14.774Z,8456
2018-04-19T07:36:12.967Z,8736
2018-04-19T07:37:13.471Z,8500
2018-04-19T07:38:13.491Z,8204
2018-04-19T07:39:13.716Z,8188
2018-04-19T07:40:15.072Z,8344
2018-04-19T07:41:13.493Z,8732
2018-04-19T07:42:13.250Z,9428
2018-04-19T07:43:13.262Z,10124
2018-04-19T07:44:13.022Z,10668
2018-04-19T07:45:14.506Z,10864
2018-04-19T07:46:13.648Z,10988
2018-04-19T07:47:13.283Z,11048
2018-04-19T07:48:13.539Z,10976
2018-04-19T07:49:13.541Z,10844
2018-04-19T07:50:15.125Z,10760
2018-04-19T07:51:13.301Z,10764
2018-04-19T07:52:13.567Z,10800
2018-04-19T07:53:13.569Z,10920
2018-04-19T07:54:13.572Z,11156
2018-04-19T07:55:14.576Z,11200
2018-04-19T07:56:13.352Z,11284
2018-04-19T07:57:13.356Z,11336
2018-04-19T07:58:13.613Z,11340
2018-04-19T07:59:13.612Z,11332
2018-04-19T08:00:14.795Z,11272
2018-04-19T08:01:13.380Z,11256
2018-04-19T08:02:13.379Z,11256
2018-04-19T08:03:13.385Z,11188
2018-04-19T08:04:13.397Z,11136
2018-04-19T08:05:15.114Z,11096
2018-04-19T08:06:13.663Z,11056
2018-04-19T08:07:13.415Z,11032
2018-04-19T08:08:13.425Z,11108
2018-04-19T08:09:13.681Z,10972
2018-04-19T08:10:15.258Z,10928
2018-04-19T08:11:13.469Z,10872
2018-04-19T08:12:13.708Z,10868
2018-04-19T08:13:13.468Z,10784
2018-04-19T08:14:13.922Z,10736
2018-04-19T08:15:14.973Z,10712
2018-04-19T08:16:13.235Z,10604
2018-04-19T08:17:13.478Z,10592
2018-04-19T08:18:13.753Z,10524
2018-04-19T08:19:13.502Z,10500
2018-04-19T08:20:15.267Z,10492
2018-04-19T08:21:13.774Z,10468
2018-04-19T08:22:13.792Z,10404
2018-04-19T08:23:13.286Z,10412
2018-04-19T08:24:13.553Z,10304
2018-04-19T08:25:15.233Z,10244
2018-04-19T08:26:13.326Z,10148
2018-04-19T08:27:13.325Z,10064
2018-04-19T08:28:13.819Z,9980
2018-04-19T08:29:13.829Z,9924
2018-04-19T08:30:14.655Z,9880
2018-04-19T08:31:13.605Z,9780
2018-04-19T08:32:13.619Z,9692
2018-04-19T08:33:13.615Z,9684
2018-04-19T08:34:13.876Z,9676
2018-04-19T08:35:14.977Z,9648
2018-04-19T08:36:13.934Z,9696
2018-04-19T08:37:13.906Z,9600
2018-04-19T08:38:13.657Z,9620
2018-04-19T08:39:13.666Z,9632
2018-04-19T08:40:15.322Z,9572
2018-04-19T08:41:13.694Z,9536
2018-04-19T08:42:13.989Z,9532
2018-04-19T08:43:13.950Z,9496
2018-04-19T08:44:15.559Z,9476
2018-04-19T08:45:14.352Z,9432
2018-04-19T08:46:13.731Z,9408
2018-04-19T08:47:13.724Z,9364
2018-04-19T08:48:13.998Z,9320
2018-04-19T08:49:13.750Z,9312
2018-04-19T08:50:15.079Z,9308
2018-04-19T08:51:13.752Z,9316
2018-04-19T08:52:14.009Z,9332
2018-04-19T08:53:14.013Z,9336
2018-04-19T08:54:14.028Z,9324
2018-04-19T08:55:15.497Z,9324
2018-04-19T08:56:13.540Z,9316
2018-04-19T08:57:14.058Z,9348
2018-04-19T08:58:13.795Z,9360
2018-04-19T08:59:18.008Z,9348
2018-04-19T09:00:15.740Z,9200
2018-04-19T09:01:14.064Z,9388
2018-04-19T09:02:14.074Z,9368
2018-04-19T09:03:14.065Z,9396
2018-04-19T09:04:14.087Z,9388
2018-04-19T09:05:15.516Z,9404
2018-04-19T09:06:13.843Z,9384
2018-04-19T09:07:14.093Z,9388
2018-04-19T09:08:13.867Z,9400
2018-04-19T09:09:14.124Z,9420
2018-04-19T09:10:14.883Z,9424
2018-04-19T09:11:13.871Z,9432
2018-04-19T09:12:13.683Z,9440
2018-04-19T09:13:13.936Z,9448
2018-04-19T09:14:13.379Z,9460
2018-04-19T09:15:15.185Z,9452
2018-04-19T09:16:13.897Z,9512
2018-04-19T09:17:13.893Z,9456
2018-04-19T09:18:13.901Z,9460
2018-04-19T09:19:14.212Z,9460
2018-04-19T09:20:15.282Z,9428
2018-04-19T09:21:13.678Z,9412
2018-04-19T09:22:14.253Z,9384
2018-04-19T09:23:13.734Z,9384
2018-04-19T09:24:13.942Z,9360
2018-04-19T09:25:14.869Z,9336
2018-04-19T09:26:13.930Z,9296
2018-04-19T09:27:14.191Z,9268
2018-04-19T09:28:13.949Z,9276
2018-04-19T09:29:13.953Z,9212
2018-04-19T09:30:15.271Z,9184
2018-04-19T09:31:13.965Z,9176
2018-04-19T09:32:13.714Z,9136
2018-04-19T09:33:13.714Z,9088
2018-04-19T09:34:14.081Z,9056
2018-04-19T09:35:15.591Z,9004
2018-04-19T09:36:14.003Z,8968
2018-04-19T09:37:14.231Z,8924
2018-04-19T09:38:14.012Z,8864
2018-04-19T09:39:14.012Z,8824
2018-04-19T09:40:15.226Z,8776
2018-04-19T09:41:14.013Z,8732
2018-04-19T09:42:14.273Z,8724
2018-04-19T09:43:14.257Z,8700
2018-04-19T09:44:14.281Z,8612
2018-04-19T09:45:20.648Z,8560
2018-04-19T09:46:13.783Z,8520
2018-04-19T09:47:14.037Z,8476
2018-04-19T09:48:14.051Z,8452
2018-04-19T09:49:14.319Z,8408
2018-04-19T09:50:15.421Z,8320
2018-04-19T09:51:13.805Z,8264
2018-04-19T09:52:14.057Z,8212
2018-04-19T09:53:13.804Z,8168
2018-04-19T09:54:14.458Z,8128
2018-04-19T09:55:14.861Z,8112
2018-04-19T09:56:14.063Z,8052
2018-04-19T09:57:14.326Z,7980
2018-04-19T09:58:14.095Z,7928
2018-04-19T09:59:14.336Z,7912
2018-04-19T10:00:15.384Z,7840
2018-04-19T10:01:14.366Z,7816
2018-04-19T10:02:14.090Z,7788
2018-04-19T10:03:14.375Z,7748
2018-04-19T10:04:14.506Z,7724
2018-04-19T10:05:15.772Z,7700
2018-04-19T10:06:14.370Z,7664
2018-04-19T10:07:14.120Z,7636
2018-04-19T10:08:14.132Z,7632
2018-04-19T10:09:14.396Z,7560
2018-04-19T10:10:15.808Z,7532
2018-04-19T10:11:14.402Z,7504
2018-04-19T10:12:14.392Z,7472
2018-04-19T10:13:14.152Z,7448
2018-04-19T10:14:14.407Z,7412
2018-04-19T10:15:20.005Z,7384
2018-04-19T10:16:14.524Z,7388
2018-04-19T10:17:14.420Z,7356
2018-04-19T10:18:13.672Z,7344
2018-04-19T10:19:13.967Z,7352
2018-04-19T10:20:15.759Z,7316
2018-04-19T10:21:14.233Z,7308
2018-04-19T10:52:51.053Z,7032
2018-04-19T10:53:49.983Z,6996
2018-04-19T10:54:49.727Z,6976
2018-04-19T10:55:49.723Z,6952
2018-04-19T10:56:49.507Z,6960
2018-04-19T10:57:49.758Z,6956
2018-04-19T10:58:49.732Z,6928
2018-04-19T10:59:49.483Z,6840
2018-04-19T11:00:49.976Z,6864
2018-04-19T11:01:49.505Z,6744
2018-04-19T11:02:49.985Z,6672
2018-04-19T11:03:49.992Z,6644
2018-04-19T11:04:49.765Z,6600
2018-04-19T11:05:49.742Z,6652
2018-04-19T11:06:49.760Z,6660
2018-04-19T11:07:49.761Z,6712
2018-04-19T11:08:50.017Z,6712
2018-04-19T11:09:50.021Z,6700
2018-04-19T11:10:49.783Z,6704
2018-04-19T11:11:49.826Z,6684
2018-04-19T11:12:50.042Z,6652
2018-04-19T11:13:49.788Z,6648
2018-04-19T11:14:49.775Z,6636
2018-04-19T11:15:50.054Z,6608
2018-04-19T11:16:50.039Z,6588
2018-04-19T11:17:49.792Z,6568
2018-04-19T11:18:49.823Z,6564
2018-04-19T11:19:50.054Z,6552
2018-04-19T11:20:49.574Z,6544
2018-04-19T11:21:49.588Z,6524
2018-04-19T11:22:50.136Z,6516
2018-04-19T11:23:49.827Z,6520
2018-04-19T11:24:50.084Z,6508
2018-04-19T11:25:49.586Z,6456
2018-04-19T11:26:50.103Z,6468
2018-04-19T11:27:49.604Z,6472
2018-04-19T11:28:49.841Z,6456
2018-04-19T11:29:49.603Z,6440
2018-04-19T11:30:49.885Z,6464
2018-04-19T11:31:49.366Z,6436
2018-04-19T11:32:49.887Z,6464
2018-04-19T11:33:49.377Z,6444
2018-04-19T11:34:49.875Z,6436
2018-04-19T11:35:49.894Z,6476
2018-04-19T11:36:49.720Z,6444
2018-04-19T11:37:54.209Z,6436
2018-04-19T11:38:49.899Z,6424
2018-04-19T11:39:49.658Z,6468
2018-04-19T11:40:50.189Z,6456
2018-04-19T11:41:50.165Z,6476
2018-04-19T11:42:49.661Z,6468
2018-04-19T11:43:49.690Z,6468
2018-04-19T11:44:49.946Z,6480
2018-04-19T11:45:50.196Z,6464
2018-04-19T11:46:49.940Z,6444
2018-04-19T11:47:50.192Z,6460
2018-04-19T11:48:50.204Z,6460
2018-04-19T11:49:50.209Z,6484
2018-04-19T11:50:50.211Z,6468
2018-04-19T11:51:49.468Z,6424
2018-04-19T11:52:52.068Z,6440
2018-04-19T11:53:49.731Z,6452
2018-04-19T11:54:49.996Z,6476
2018-04-19T11:55:49.980Z,6472
2018-04-19T11:56:50.240Z,6448
2018-04-19T11:57:50.248Z,6464
2018-04-19T11:58:50.254Z,6464
2018-04-19T11:59:50.269Z,6388
2018-04-19T12:00:50.015Z,6392
2018-04-19T12:01:50.270Z,6356
2018-04-19T12:02:50.034Z,6352
2018-04-19T12:03:50.273Z,6368
2018-04-19T12:04:49.784Z,6372
2018-04-19T12:05:50.282Z,6368
2018-04-19T12:06:50.041Z,6388
2018-04-19T12:07:50.296Z,6392
2018-04-19T12:08:50.053Z,6388
2018-04-19T12:09:49.809Z,6392
2018-04-19T12:10:50.312Z,6392
2018-04-19T12:11:50.318Z,6376
2018-04-19T12:12:50.337Z,6384
2018-04-19T12:13:49.856Z,6384
2018-04-19T12:14:50.336Z,6388
2018-04-19T12:15:50.347Z,6392
2018-04-19T12:16:50.119Z,6364
2018-04-19T12:17:50.102Z,6348
2018-04-19T12:18:50.425Z,6340
2018-04-19T12:19:50.126Z,6328
2018-04-19T12:20:50.122Z,6320
2018-04-19T12:21:50.389Z,6296
2018-04-19T12:22:50.132Z,6292
2018-04-19T12:23:52.748Z,6276
2018-04-19T12:24:50.161Z,6280
2018-04-19T12:25:49.916Z,6260
2018-04-19T12:26:50.167Z,6240
2018-04-19T12:27:50.151Z,6248
2018-04-19T12:28:50.166Z,6248
2018-04-19T12:29:50.447Z,6248
2018-04-19T12:30:50.169Z,6236
2018-04-19T12:31:49.682Z,6228
2018-04-19T12:32:50.436Z,6216
2018-04-19T12:33:49.943Z,6212
2018-04-19T12:34:50.201Z,6196
2018-04-19T12:35:50.190Z,6188
2018-04-19T12:36:49.946Z,6168
2018-04-19T12:37:50.518Z,6164
2018-04-19T12:38:50.231Z,6148
2018-04-19T12:39:50.469Z,6136
2018-04-19T12:40:50.218Z,6124
2018-04-19T12:41:50.530Z,6108
2018-04-19T12:42:50.490Z,6104
2018-04-19T12:43:49.990Z,6088
2018-04-19T12:44:50.005Z,6088
2018-04-19T12:45:50.246Z,6084
2018-04-19T12:46:50.256Z,6076
2018-04-19T12:47:50.513Z,6060
2018-04-19T12:48:50.311Z,6064
2018-04-19T12:49:50.014Z,6056
2018-04-19T12:50:50.542Z,6032
2018-04-19T12:51:50.033Z,6028
2018-04-19T12:52:50.036Z,6020
2018-04-19T12:53:53.486Z,6032
2018-04-19T12:54:50.549Z,6016
2018-04-19T12:55:50.543Z,6008
2018-04-19T12:56:50.062Z,6004
2018-04-19T12:57:50.554Z,5992
2018-04-19T12:58:50.560Z,5956
2018-04-19T12:59:50.065Z,5980
2018-04-19T13:00:50.588Z,5972
2018-04-19T13:01:50.073Z,5980
2018-04-19T13:02:50.326Z,5972
2018-04-19T13:03:50.334Z,5968
2018-04-19T13:04:50.593Z,5964
2018-04-19T13:05:50.356Z,5936
2018-04-19T13:06:50.608Z,5916
2018-04-19T13:07:50.352Z,5948
2018-04-19T13:08:50.625Z,5984
2018-04-19T13:09:50.621Z,5984
2018-04-19T13:10:50.628Z,6036
2018-04-19T13:11:50.674Z,5976
2018-04-19T13:12:50.499Z,5968
2018-04-19T13:13:50.144Z,5972
2018-04-19T13:14:49.891Z,5964
2018-04-19T13:15:50.400Z,5972
2018-04-19T13:16:50.407Z,5960
2018-04-19T13:17:50.408Z,5956
2018-04-19T13:18:50.172Z,5980
2018-04-19T13:19:50.671Z,5964
2018-04-19T13:20:50.464Z,5972
2018-04-19T13:21:50.683Z,5988
2018-04-19T13:22:50.435Z,5984
2018-04-19T13:23:53.735Z,5992
2018-04-19T13:24:50.469Z,5992
2018-04-19T13:25:50.984Z,6012
2018-04-19T13:26:50.458Z,5992
2018-04-19T13:27:50.457Z,6004
2018-04-19T13:28:50.469Z,5988
2018-04-19T13:29:49.984Z,5980
2018-04-19T13:30:50.727Z,5984
2018-04-19T13:31:50.744Z,5996
2018-04-19T13:32:50.747Z,5980
2018-04-19T13:33:50.746Z,5992
2018-04-19T13:34:50.762Z,5980
2018-04-19T13:35:50.501Z,5988
2018-04-19T13:36:50.763Z,5976
2018-04-19T13:37:50.775Z,5992
2018-04-19T13:38:50.770Z,5992
2018-04-19T13:39:51.954Z,5992
2018-04-19T13:40:50.848Z,5996
2018-04-19T13:41:50.789Z,6008
2018-04-19T13:42:50.551Z,5996
2018-04-19T13:43:50.818Z,6008
2018-04-19T13:44:50.348Z,6012
2018-04-19T13:45:50.563Z,6024
2018-04-19T13:46:50.561Z,6020
2018-04-19T13:47:50.612Z,6016
2018-04-19T13:48:50.610Z,6024
2018-04-19T13:49:50.830Z,6032
2018-04-19T13:50:50.334Z,6032
2018-04-19T13:51:50.844Z,6028
2018-04-19T13:52:50.863Z,6036
2018-04-19T13:53:50.856Z,6032
2018-04-19T13:54:51.608Z,6040
2018-04-19T13:55:50.369Z,6048
2018-04-19T13:56:50.859Z,6048
2018-04-19T13:57:50.879Z,6052
2018-04-19T13:58:50.623Z,6044
2018-04-19T13:59:50.637Z,6048
2018-04-19T14:00:50.388Z,6032
2018-04-19T14:01:50.661Z,6040
2018-04-19T14:02:50.399Z,6012
2018-04-19T14:03:50.911Z,6004
2018-04-19T14:04:50.166Z,6004
2018-04-19T14:05:50.973Z,6016
2018-04-19T14:06:50.669Z,6024
2018-04-19T14:07:50.922Z,6008
2018-04-19T14:08:50.926Z,6008
2018-04-19T14:09:51.439Z,6012
2018-04-19T14:10:50.691Z,6008
2018-04-19T14:11:50.707Z,6000
2018-04-19T14:12:50.966Z,6000
2018-04-19T14:13:50.455Z,5996
2018-04-19T14:14:50.474Z,5988
2018-04-19T14:15:50.995Z,5972
2018-04-19T14:16:50.974Z,5960
2018-04-19T14:17:50.736Z,5968
2018-04-19T14:18:50.994Z,5956
2018-04-19T14:19:50.729Z,5932
2018-04-19T14:20:50.849Z,5920
2018-04-19T14:21:51.002Z,5928
2018-04-19T14:22:51.012Z,5908
2018-04-19T14:23:50.758Z,5896
2018-04-19T14:24:50.763Z,5892
2018-04-19T14:25:50.781Z,5872
2018-04-19T14:26:50.774Z,5848